sensor_id;sensor_type;location;lat;lon;timestamp;P1;durP1;ratioP1;P2;durP2;ratioP2
55913;SDS011;58179;48.776;9.124;2024-02-14T00:00:25;9.67;;;3.40;;
55913;SDS011;58179;48.776;9.124;2024-02-14T00:02:51;6.88;;;3.22;;
55913;SDS011;58179;48.776;9.124;2024-02-14T00:05:17;3.47;;;3.00;;
55913;SDS011;58179;48.776;9.124;2024-02-14T00:07:43;3.90;;;2.70;;
55913;SDS011;58179;48.776;9.124;2024-02-14T00:10:11;5.75;;;3.08;;
55913;SDS011;58179;48.776;9.124;2024-02-14T00:12:37;4.35;;;2.85;;
55913;SDS011;58179;48.776;9.124;2024-02-14T00:15:04;4.85;;;3.22;;
55913;SDS011;58179;48.776;9.124;2024-02-14T00:17:33;5.07;;;3.08;;
55913;SDS011;58179;48.776;9.124;2024-02-14T00:20:00;5.25;;;2.97;;
55913;SDS011;58179;48.776;9.124;2024-02-14T00:22:26;4.00;;;2.80;;
55913;SDS011;58179;48.776;9.124;2024-02-14T00:24:52;4.35;;;2.97;;
55913;SDS011;58179;48.776;9.124;2024-02-14T00:27:20;7.25;;;3.50;;
55913;SDS011;58179;48.776;9.124;2024-02-14T00:29:46;4.50;;;2.97;;
55913;SDS011;58179;48.776;9.124;2024-02-14T00:32:13;4.50;;;3.00;;
55913;SDS011;58179;48.776;9.124;2024-02-14T00:34:39;5.20;;;3.28;;
55913;SDS011;58179;48.776;9.124;2024-02-14T00:37:05;4.30;;;3.03;;
55913;SDS011;58179;48.776;9.124;2024-02-14T00:39:32;7.78;;;3.50;;
55913;SDS011;58179;48.776;9.124;2024-02-14T00:41:58;5.10;;;3.50;;
55913;SDS011;58179;48.776;9.124;2024-02-14T00:44:25;4.45;;;3.33;;
55913;SDS011;58179;48.776;9.124;2024-02-14T00:46:55;5.85;;;3.10;;
55913;SDS011;58179;48.776;9.124;2024-02-14T00:49:22;5.80;;;3.13;;
55913;SDS011;58179;48.776;9.124;2024-02-14T00:51:48;3.50;;;3.00;;
55913;SDS011;58179;48.776;9.124;2024-02-14T00:54:14;5.63;;;3.60;;
55913;SDS011;58179;48.776;9.124;2024-02-14T00:56:40;6.28;;;3.55;;
55913;SDS011;58179;48.776;9.124;2024-02-14T00:59:06;7.63;;;3.87;;
55913;SDS011;58179;48.776;9.124;2024-02-14T01:01:34;7.80;;;4.47;;
55913;SDS011;58179;48.776;9.124;2024-02-14T01:04:00;8.07;;;4.10;;
55913;SDS011;58179;48.776;9.124;2024-02-14T01:06:26;7.60;;;4.20;;
55913;SDS011;58179;48.776;9.124;2024-02-14T01:08:52;9.35;;;5.00;;
55913;SDS011;58179;48.776;9.124;2024-02-14T01:11:18;7.67;;;4.37;;
55913;SDS011;58179;48.776;9.124;2024-02-14T01:13:44;9.60;;;4.45;;
55913;SDS011;58179;48.776;9.124;2024-02-14T01:16:10;8.43;;;4.43;;
55913;SDS011;58179;48.776;9.124;2024-02-14T01:18:38;11.55;;;4.97;;
55913;SDS011;58179;48.776;9.124;2024-02-14T01:21:04;7.57;;;4.85;;
55913;SDS011;58179;48.776;9.124;2024-02-14T01:23:30;9.82;;;4.63;;
55913;SDS011;58179;48.776;9.124;2024-02-14T01:25:57;10.43;;;5.15;;
55913;SDS011;58179;48.776;9.124;2024-02-14T01:28:23;9.63;;;5.32;;
55913;SDS011;58179;48.776;9.124;2024-02-14T01:30:49;9.27;;;4.90;;
55913;SDS011;58179;48.776;9.124;2024-02-14T01:33:16;11.38;;;5.50;;
55913;SDS011;58179;48.776;9.124;2024-02-14T01:35:43;11.43;;;5.22;;
55913;SDS011;58179;48.776;9.124;2024-02-14T01:38:09;9.13;;;5.20;;
55913;SDS011;58179;48.776;9.124;2024-02-14T01:40:37;7.53;;;4.47;;
55913;SDS011;58179;48.776;9.124;2024-02-14T01:43:07;6.97;;;5.07;;
55913;SDS011;58179;48.776;9.124;2024-02-14T01:45:34;8.30;;;5.05;;
55913;SDS011;58179;48.776;9.124;2024-02-14T01:48:00;10.13;;;5.00;;
55913;SDS011;58179;48.776;9.124;2024-02-14T01:50:27;8.00;;;5.03;;
55913;SDS011;58179;48.776;9.124;2024-02-14T01:52:56;10.32;;;5.20;;
55913;SDS011;58179;48.776;9.124;2024-02-14T01:55:24;5.88;;;4.13;;
55913;SDS011;58179;48.776;9.124;2024-02-14T01:57:52;5.88;;;4.28;;
55913;SDS011;58179;48.776;9.124;2024-02-14T02:00:19;6.63;;;4.35;;
55913;SDS011;58179;48.776;9.124;2024-02-14T02:02:46;6.50;;;4.28;;
55913;SDS011;58179;48.776;9.124;2024-02-14T02:05:12;5.13;;;3.77;;
55913;SDS011;58179;48.776;9.124;2024-02-14T02:07:39;4.70;;;3.67;;
55913;SDS011;58179;48.776;9.124;2024-02-14T02:10:09;6.47;;;3.80;;
55913;SDS011;58179;48.776;9.124;2024-02-14T02:12:38;7.43;;;4.25;;
55913;SDS011;58179;48.776;9.124;2024-02-14T02:15:05;4.63;;;3.67;;
55913;SDS011;58179;48.776;9.124;2024-02-14T02:17:32;5.20;;;4.20;;
55913;SDS011;58179;48.776;9.124;2024-02-14T02:20:01;6.85;;;4.47;;
55913;SDS011;58179;48.776;9.124;2024-02-14T02:22:27;7.72;;;4.20;;
55913;SDS011;58179;48.776;9.124;2024-02-14T02:25:01;7.88;;;4.38;;
55913;SDS011;58179;48.776;9.124;2024-02-14T02:27:27;9.30;;;4.40;;
55913;SDS011;58179;48.776;9.124;2024-02-14T02:29:53;5.75;;;4.00;;
55913;SDS011;58179;48.776;9.124;2024-02-14T02:32:20;7.45;;;3.90;;
55913;SDS011;58179;48.776;9.124;2024-02-14T02:34:46;5.80;;;3.90;;
55913;SDS011;58179;48.776;9.124;2024-02-14T02:37:12;6.37;;;3.70;;
55913;SDS011;58179;48.776;9.124;2024-02-14T02:39:38;4.40;;;3.53;;
55913;SDS011;58179;48.776;9.124;2024-02-14T02:42:06;4.97;;;3.70;;
55913;SDS011;58179;48.776;9.124;2024-02-14T02:44:33;4.50;;;3.40;;
55913;SDS011;58179;48.776;9.124;2024-02-14T02:46:59;4.15;;;3.30;;
55913;SDS011;58179;48.776;9.124;2024-02-14T02:49:25;4.80;;;3.50;;
55913;SDS011;58179;48.776;9.124;2024-02-14T02:51:51;4.82;;;3.40;;
55913;SDS011;58179;48.776;9.124;2024-02-14T02:54:18;4.60;;;3.80;;
55913;SDS011;58179;48.776;9.124;2024-02-14T02:56:44;3.63;;;3.17;;
55913;SDS011;58179;48.776;9.124;2024-02-14T02:59:11;4.72;;;3.53;;
55913;SDS011;58179;48.776;9.124;2024-02-14T03:01:38;3.77;;;2.97;;
55913;SDS011;58179;48.776;9.124;2024-02-14T03:04:05;4.07;;;3.17;;
55913;SDS011;58179;48.776;9.124;2024-02-14T03:06:33;3.10;;;2.53;;
55913;SDS011;58179;48.776;9.124;2024-02-14T03:08:59;3.88;;;2.60;;
55913;SDS011;58179;48.776;9.124;2024-02-14T03:11:25;4.47;;;3.10;;
55913;SDS011;58179;48.776;9.124;2024-02-14T03:13:52;4.97;;;3.75;;
55913;SDS011;58179;48.776;9.124;2024-02-14T03:16:19;5.30;;;3.80;;
55913;SDS011;58179;48.776;9.124;2024-02-14T03:18:46;4.35;;;3.17;;
55913;SDS011;58179;48.776;9.124;2024-02-14T03:21:12;5.65;;;3.50;;
55913;SDS011;58179;48.776;9.124;2024-02-14T03:23:38;6.85;;;4.22;;
55913;SDS011;58179;48.776;9.124;2024-02-14T03:26:04;5.90;;;4.18;;
55913;SDS011;58179;48.776;9.124;2024-02-14T03:28:32;5.15;;;4.00;;
55913;SDS011;58179;48.776;9.124;2024-02-14T03:30:58;7.87;;;4.43;;
55913;SDS011;58179;48.776;9.124;2024-02-14T03:33:26;7.45;;;4.57;;
55913;SDS011;58179;48.776;9.124;2024-02-14T03:35:54;7.32;;;3.95;;
55913;SDS011;58179;48.776;9.124;2024-02-14T03:38:24;5.90;;;4.10;;
55913;SDS011;58179;48.776;9.124;2024-02-14T03:40:51;7.00;;;4.20;;
55913;SDS011;58179;48.776;9.124;2024-02-14T03:43:17;5.70;;;3.92;;
55913;SDS011;58179;48.776;9.124;2024-02-14T03:45:43;7.15;;;3.90;;
55913;SDS011;58179;48.776;9.124;2024-02-14T03:48:09;4.95;;;3.50;;
55913;SDS011;58179;48.776;9.124;2024-02-14T03:50:38;5.55;;;3.80;;
55913;SDS011;58179;48.776;9.124;2024-02-14T03:53:05;4.60;;;3.80;;
55913;SDS011;58179;48.776;9.124;2024-02-14T03:55:31;7.05;;;3.90;;
55913;SDS011;58179;48.776;9.124;2024-02-14T03:57:57;6.65;;;4.03;;
55913;SDS011;58179;48.776;9.124;2024-02-14T04:00:24;6.43;;;3.60;;
55913;SDS011;58179;48.776;9.124;2024-02-14T04:02:50;5.00;;;3.60;;
55913;SDS011;58179;48.776;9.124;2024-02-14T04:05:23;4.85;;;3.58;;
55913;SDS011;58179;48.776;9.124;2024-02-14T04:07:51;4.20;;;3.42;;
55913;SDS011;58179;48.776;9.124;2024-02-14T04:10:18;5.30;;;3.53;;
55913;SDS011;58179;48.776;9.124;2024-02-14T04:12:44;4.50;;;3.70;;
55913;SDS011;58179;48.776;9.124;2024-02-14T04:15:10;6.15;;;3.80;;
55913;SDS011;58179;48.776;9.124;2024-02-14T04:17:37;6.47;;;4.00;;
55913;SDS011;58179;48.776;9.124;2024-02-14T04:20:04;7.38;;;4.40;;
55913;SDS011;58179;48.776;9.124;2024-02-14T04:22:31;7.35;;;4.22;;
55913;SDS011;58179;48.776;9.124;2024-02-14T04:24:58;4.47;;;3.35;;
55913;SDS011;58179;48.776;9.124;2024-02-14T04:27:24;5.43;;;3.75;;
55913;SDS011;58179;48.776;9.124;2024-02-14T04:29:52;5.70;;;3.70;;
55913;SDS011;58179;48.776;9.124;2024-02-14T04:32:18;7.90;;;3.97;;
55913;SDS011;58179;48.776;9.124;2024-02-14T04:34:44;4.13;;;2.83;;
55913;SDS011;58179;48.776;9.124;2024-02-14T04:37:11;4.28;;;3.03;;
55913;SDS011;58179;48.776;9.124;2024-02-14T04:39:38;5.65;;;3.45;;
55913;SDS011;58179;48.776;9.124;2024-02-14T04:42:06;4.85;;;3.13;;
55913;SDS011;58179;48.776;9.124;2024-02-14T04:44:32;4.22;;;2.95;;
55913;SDS011;58179;48.776;9.124;2024-02-14T04:46:59;4.13;;;2.80;;
55913;SDS011;58179;48.776;9.124;2024-02-14T04:49:26;6.60;;;3.50;;
55913;SDS011;58179;48.776;9.124;2024-02-14T04:51:53;11.57;;;4.60;;
55913;SDS011;58179;48.776;9.124;2024-02-14T04:54:20;6.35;;;3.15;;
55913;SDS011;58179;48.776;9.124;2024-02-14T04:56:46;3.90;;;3.20;;
55913;SDS011;58179;48.776;9.124;2024-02-14T04:59:14;4.00;;;2.90;;
55913;SDS011;58179;48.776;9.124;2024-02-14T05:01:40;5.20;;;3.30;;
55913;SDS011;58179;48.776;9.124;2024-02-14T05:04:06;9.65;;;3.95;;
55913;SDS011;58179;48.776;9.124;2024-02-14T05:06:32;8.37;;;4.03;;
55913;SDS011;58179;48.776;9.124;2024-02-14T05:08:58;13.40;;;4.10;;
55913;SDS011;58179;48.776;9.124;2024-02-14T05:11:25;7.80;;;3.25;;
55913;SDS011;58179;48.776;9.124;2024-02-14T05:13:51;6.40;;;3.33;;
55913;SDS011;58179;48.776;9.124;2024-02-14T05:16:19;7.05;;;3.20;;
55913;SDS011;58179;48.776;9.124;2024-02-14T05:18:45;3.47;;;2.72;;
55913;SDS011;58179;48.776;9.124;2024-02-14T05:21:12;6.63;;;3.27;;
55913;SDS011;58179;48.776;9.124;2024-02-14T05:23:38;8.50;;;3.30;;
55913;SDS011;58179;48.776;9.124;2024-02-14T05:26:04;6.53;;;3.47;;
55913;SDS011;58179;48.776;9.124;2024-02-14T05:28:31;8.00;;;3.55;;
55913;SDS011;58179;48.776;9.124;2024-02-14T05:30:58;6.82;;;3.30;;
55913;SDS011;58179;48.776;9.124;2024-02-14T05:33:26;4.03;;;2.63;;
55913;SDS011;58179;48.776;9.124;2024-02-14T05:35:52;3.22;;;2.58;;
55913;SDS011;58179;48.776;9.124;2024-02-14T05:38:19;3.30;;;2.50;;
55913;SDS011;58179;48.776;9.124;2024-02-14T05:40:45;2.67;;;2.20;;
55913;SDS011;58179;48.776;9.124;2024-02-14T05:43:11;3.15;;;1.90;;
55913;SDS011;58179;48.776;9.124;2024-02-14T05:45:37;2.30;;;1.88;;
55913;SDS011;58179;48.776;9.124;2024-02-14T05:48:04;3.08;;;2.00;;
55913;SDS011;58179;48.776;9.124;2024-02-14T05:50:32;3.30;;;2.17;;
55913;SDS011;58179;48.776;9.124;2024-02-14T05:52:58;3.15;;;2.20;;
55913;SDS011;58179;48.776;9.124;2024-02-14T05:55:25;2.42;;;2.10;;
55913;SDS011;58179;48.776;9.124;2024-02-14T05:57:51;2.25;;;2.10;;
55913;SDS011;58179;48.776;9.124;2024-02-14T06:00:18;3.07;;;2.00;;
55913;SDS011;58179;48.776;9.124;2024-02-14T06:02:45;2.33;;;2.13;;
55913;SDS011;58179;48.776;9.124;2024-02-14T06:05:12;2.40;;;2.10;;
55913;SDS011;58179;48.776;9.124;2024-02-14T06:07:40;9.55;;;3.67;;
55913;SDS011;58179;48.776;9.124;2024-02-14T06:10:07;10.70;;;3.78;;
55913;SDS011;58179;48.776;9.124;2024-02-14T06:12:34;6.40;;;3.40;;
55913;SDS011;58179;48.776;9.124;2024-02-14T06:15:00;4.18;;;3.20;;
55913;SDS011;58179;48.776;9.124;2024-02-14T06:17:27;8.15;;;3.55;;
55913;SDS011;58179;48.776;9.124;2024-02-14T06:19:55;4.93;;;3.25;;
55913;SDS011;58179;48.776;9.124;2024-02-14T06:22:22;7.35;;;3.60;;
55913;SDS011;58179;48.776;9.124;2024-02-14T06:24:49;6.55;;;3.20;;
55913;SDS011;58179;48.776;9.124;2024-02-14T06:27:15;8.57;;;3.20;;
55913;SDS011;58179;48.776;9.124;2024-02-14T06:29:41;4.55;;;2.90;;
55913;SDS011;58179;48.776;9.124;2024-02-14T06:32:08;4.53;;;2.90;;
55913;SDS011;58179;48.776;9.124;2024-02-14T06:34:34;5.43;;;2.85;;
55913;SDS011;58179;48.776;9.124;2024-02-14T06:37:00;4.40;;;2.60;;
55913;SDS011;58179;48.776;9.124;2024-02-14T06:39:26;7.43;;;3.10;;
55913;SDS011;58179;48.776;9.124;2024-02-14T06:41:54;5.20;;;2.97;;
55913;SDS011;58179;48.776;9.124;2024-02-14T06:44:20;4.40;;;2.58;;
55913;SDS011;58179;48.776;9.124;2024-02-14T06:46:46;9.10;;;2.90;;
55913;SDS011;58179;48.776;9.124;2024-02-14T06:49:12;6.07;;;3.03;;
55913;SDS011;58179;48.776;9.124;2024-02-14T06:51:40;4.63;;;2.67;;
55913;SDS011;58179;48.776;9.124;2024-02-14T06:54:06;6.25;;;2.80;;
55913;SDS011;58179;48.776;9.124;2024-02-14T06:56:33;5.70;;;2.80;;
55913;SDS011;58179;48.776;9.124;2024-02-14T06:59:01;12.50;;;3.40;;
55913;SDS011;58179;48.776;9.124;2024-02-14T07:01:28;4.88;;;2.70;;
55913;SDS011;58179;48.776;9.124;2024-02-14T07:03:54;4.30;;;2.60;;
55913;SDS011;58179;48.776;9.124;2024-02-14T07:06:20;6.40;;;2.63;;
55913;SDS011;58179;48.776;9.124;2024-02-14T07:08:47;5.88;;;2.75;;
55913;SDS011;58179;48.776;9.124;2024-02-14T07:11:13;4.43;;;2.63;;
55913;SDS011;58179;48.776;9.124;2024-02-14T07:13:43;9.93;;;2.83;;
55913;SDS011;58179;48.776;9.124;2024-02-14T07:16:10;5.90;;;2.70;;
55913;SDS011;58179;48.776;9.124;2024-02-14T07:18:36;6.72;;;2.72;;
55913;SDS011;58179;48.776;9.124;2024-02-14T07:21:03;8.17;;;2.60;;
55913;SDS011;58179;48.776;9.124;2024-02-14T07:23:30;4.00;;;2.40;;
55913;SDS011;58179;48.776;9.124;2024-02-14T07:26:01;6.68;;;2.60;;
55913;SDS011;58179;48.776;9.124;2024-02-14T07:28:30;4.07;;;2.50;;
55913;SDS011;58179;48.776;9.124;2024-02-14T07:30:57;3.42;;;2.10;;
55913;SDS011;58179;48.776;9.124;2024-02-14T07:33:24;2.97;;;2.30;;
55913;SDS011;58179;48.776;9.124;2024-02-14T07:35:50;5.60;;;2.87;;
55913;SDS011;58179;48.776;9.124;2024-02-14T07:38:17;4.30;;;2.03;;
55913;SDS011;58179;48.776;9.124;2024-02-14T07:40:43;2.88;;;1.90;;
55913;SDS011;58179;48.776;9.124;2024-02-14T07:43:09;2.53;;;1.98;;
55913;SDS011;58179;48.776;9.124;2024-02-14T07:45:35;2.20;;;1.92;;
55913;SDS011;58179;48.776;9.124;2024-02-14T07:48:02;3.75;;;2.22;;
55913;SDS011;58179;48.776;9.124;2024-02-14T07:50:31;3.28;;;2.00;;
55913;SDS011;58179;48.776;9.124;2024-02-14T07:52:57;2.30;;;1.70;;
55913;SDS011;58179;48.776;9.124;2024-02-14T07:55:23;2.58;;;2.10;;
55913;SDS011;58179;48.776;9.124;2024-02-14T07:57:50;3.22;;;2.03;;
55913;SDS011;58179;48.776;9.124;2024-02-14T08:00:17;3.40;;;2.20;;
55913;SDS011;58179;48.776;9.124;2024-02-14T08:02:47;4.10;;;2.20;;
55913;SDS011;58179;48.776;9.124;2024-02-14T08:05:13;3.80;;;2.40;;
55913;SDS011;58179;48.776;9.124;2024-02-14T08:07:41;3.85;;;2.20;;
55913;SDS011;58179;48.776;9.124;2024-02-14T08:10:07;4.03;;;2.45;;
55913;SDS011;58179;48.776;9.124;2024-02-14T08:12:34;4.88;;;2.10;;
55913;SDS011;58179;48.776;9.124;2024-02-14T08:15:00;6.63;;;2.10;;
55913;SDS011;58179;48.776;9.124;2024-02-14T08:17:29;5.22;;;2.40;;
55913;SDS011;58179;48.776;9.124;2024-02-14T08:19:55;5.93;;;2.60;;
55913;SDS011;58179;48.776;9.124;2024-02-14T08:22:21;7.15;;;2.50;;
55913;SDS011;58179;48.776;9.124;2024-02-14T08:24:49;4.32;;;2.20;;
55913;SDS011;58179;48.776;9.124;2024-02-14T08:27:16;4.60;;;2.20;;
55913;SDS011;58179;48.776;9.124;2024-02-14T08:29:43;5.30;;;2.60;;
55913;SDS011;58179;48.776;9.124;2024-02-14T08:32:09;5.60;;;2.70;;
55913;SDS011;58179;48.776;9.124;2024-02-14T08:34:35;5.50;;;2.58;;
55913;SDS011;58179;48.776;9.124;2024-02-14T08:37:01;3.67;;;2.35;;
55913;SDS011;58179;48.776;9.124;2024-02-14T08:39:27;3.63;;;2.17;;
55913;SDS011;58179;48.776;9.124;2024-02-14T08:41:55;5.13;;;2.03;;
55913;SDS011;58179;48.776;9.124;2024-02-14T08:44:21;4.32;;;2.25;;
55913;SDS011;58179;48.776;9.124;2024-02-14T08:46:47;3.25;;;2.13;;
55913;SDS011;58179;48.776;9.124;2024-02-14T08:49:14;4.93;;;2.25;;
55913;SDS011;58179;48.776;9.124;2024-02-14T08:51:40;2.80;;;1.95;;
55913;SDS011;58179;48.776;9.124;2024-02-14T08:54:09;3.70;;;1.80;;
55913;SDS011;58179;48.776;9.124;2024-02-14T08:56:35;3.92;;;2.28;;
55913;SDS011;58179;48.776;9.124;2024-02-14T08:59:03;3.25;;;1.85;;
55913;SDS011;58179;48.776;9.124;2024-02-14T09:01:31;1.93;;;1.73;;
55913;SDS011;58179;48.776;9.124;2024-02-14T09:03:58;3.45;;;2.03;;
55913;SDS011;58179;48.776;9.124;2024-02-14T09:06:24;2.38;;;1.90;;
55913;SDS011;58179;48.776;9.124;2024-02-14T09:08:53;3.30;;;1.70;;
55913;SDS011;58179;48.776;9.124;2024-02-14T09:11:19;3.78;;;2.00;;
55913;SDS011;58179;48.776;9.124;2024-02-14T09:13:47;3.40;;;1.85;;
55913;SDS011;58179;48.776;9.124;2024-02-14T09:16:17;5.28;;;2.42;;
55913;SDS011;58179;48.776;9.124;2024-02-14T09:18:44;5.37;;;2.07;;
55913;SDS011;58179;48.776;9.124;2024-02-14T09:21:11;4.32;;;1.83;;
55913;SDS011;58179;48.776;9.124;2024-02-14T09:23:39;5.93;;;2.30;;
55913;SDS011;58179;48.776;9.124;2024-02-14T09:26:05;2.35;;;1.80;;
55913;SDS011;58179;48.776;9.124;2024-02-14T09:28:32;2.15;;;1.73;;
55913;SDS011;58179;48.776;9.124;2024-02-14T09:31:00;2.92;;;1.80;;
55913;SDS011;58179;48.776;9.124;2024-02-14T09:33:30;3.28;;;1.88;;
55913;SDS011;58179;48.776;9.124;2024-02-14T09:35:56;5.82;;;2.33;;
55913;SDS011;58179;48.776;9.124;2024-02-14T09:38:22;5.20;;;2.05;;
55913;SDS011;58179;48.776;9.124;2024-02-14T09:40:48;2.35;;;1.70;;
55913;SDS011;58179;48.776;9.124;2024-02-14T09:43:21;3.72;;;1.83;;
55913;SDS011;58179;48.776;9.124;2024-02-14T09:45:53;3.40;;;2.10;;
55913;SDS011;58179;48.776;9.124;2024-02-14T09:48:19;4.38;;;1.95;;
55913;SDS011;58179;48.776;9.124;2024-02-14T09:50:48;3.08;;;1.70;;
55913;SDS011;58179;48.776;9.124;2024-02-14T09:53:15;3.22;;;2.00;;
55913;SDS011;58179;48.776;9.124;2024-02-14T09:55:42;2.40;;;1.70;;
55913;SDS011;58179;48.776;9.124;2024-02-14T09:58:10;2.92;;;1.80;;
55913;SDS011;58179;48.776;9.124;2024-02-14T10:00:37;2.42;;;1.45;;
55913;SDS011;58179;48.776;9.124;2024-02-14T10:03:03;3.13;;;1.73;;
55913;SDS011;58179;48.776;9.124;2024-02-14T10:05:30;1.90;;;1.43;;
55913;SDS011;58179;48.776;9.124;2024-02-14T10:07:57;1.80;;;1.38;;
55913;SDS011;58179;48.776;9.124;2024-02-14T10:10:24;1.60;;;1.20;;
55913;SDS011;58179;48.776;9.124;2024-02-14T10:12:50;4.80;;;1.65;;
55913;SDS011;58179;48.776;9.124;2024-02-14T10:15:17;2.17;;;1.42;;
55913;SDS011;58179;48.776;9.124;2024-02-14T10:17:43;3.30;;;1.42;;
55913;SDS011;58179;48.776;9.124;2024-02-14T10:20:09;1.60;;;1.17;;
55913;SDS011;58179;48.776;9.124;2024-02-14T10:22:36;2.80;;;1.50;;
55913;SDS011;58179;48.776;9.124;2024-02-14T10:25:05;2.45;;;1.50;;
55913;SDS011;58179;48.776;9.124;2024-02-14T10:27:33;2.03;;;1.60;;
55913;SDS011;58179;48.776;9.124;2024-02-14T10:30:03;2.40;;;1.40;;
55913;SDS011;58179;48.776;9.124;2024-02-14T10:32:34;2.37;;;1.43;;
55913;SDS011;58179;48.776;9.124;2024-02-14T10:35:01;2.58;;;1.30;;
55913;SDS011;58179;48.776;9.124;2024-02-14T10:37:29;3.22;;;1.42;;
55913;SDS011;58179;48.776;9.124;2024-02-14T10:39:56;3.80;;;1.60;;
55913;SDS011;58179;48.776;9.124;2024-02-14T10:42:28;3.20;;;1.70;;
55913;SDS011;58179;48.776;9.124;2024-02-14T10:44:54;1.98;;;1.30;;
55913;SDS011;58179;48.776;9.124;2024-02-14T10:47:20;1.80;;;1.15;;
55913;SDS011;58179;48.776;9.124;2024-02-14T10:49:54;1.30;;;1.20;;
55913;SDS011;58179;48.776;9.124;2024-02-14T10:52:25;1.50;;;1.10;;
55913;SDS011;58179;48.776;9.124;2024-02-14T10:54:55;2.53;;;1.33;;
55913;SDS011;58179;48.776;9.124;2024-02-14T10:57:22;3.45;;;1.33;;
55913;SDS011;58179;48.776;9.124;2024-02-14T10:59:51;3.83;;;1.70;;
55913;SDS011;58179;48.776;9.124;2024-02-14T11:02:20;3.50;;;1.50;;
55913;SDS011;58179;48.776;9.124;2024-02-14T11:04:47;3.22;;;1.60;;
55913;SDS011;58179;48.776;9.124;2024-02-14T11:07:19;3.05;;;1.60;;
55913;SDS011;58179;48.776;9.124;2024-02-14T11:09:59;2.92;;;1.45;;
55913;SDS011;58179;48.776;9.124;2024-02-14T11:12:32;3.30;;;1.50;;
55913;SDS011;58179;48.776;9.124;2024-02-14T11:15:01;1.88;;;1.35;;
55913;SDS011;58179;48.776;9.124;2024-02-14T11:17:33;2.13;;;1.42;;
55913;SDS011;58179;48.776;9.124;2024-02-14T11:20:00;1.45;;;1.30;;
55913;SDS011;58179;48.776;9.124;2024-02-14T11:22:39;2.28;;;1.40;;
55913;SDS011;58179;48.776;9.124;2024-02-14T11:25:15;2.30;;;1.42;;
55913;SDS011;58179;48.776;9.124;2024-02-14T11:27:43;2.08;;;1.50;;
55913;SDS011;58179;48.776;9.124;2024-02-14T11:30:11;1.70;;;1.20;;
55913;SDS011;58179;48.776;9.124;2024-02-14T11:32:40;4.97;;;1.40;;
55913;SDS011;58179;48.776;9.124;2024-02-14T11:35:10;1.60;;;1.40;;
55913;SDS011;58179;48.776;9.124;2024-02-14T11:37:37;2.10;;;1.40;;
55913;SDS011;58179;48.776;9.124;2024-02-14T11:40:04;4.05;;;1.23;;
55913;SDS011;58179;48.776;9.124;2024-02-14T11:42:32;2.35;;;1.42;;
55913;SDS011;58179;48.776;9.124;2024-02-14T11:44:58;2.65;;;1.65;;
55913;SDS011;58179;48.776;9.124;2024-02-14T11:47:25;2.35;;;1.17;;
55913;SDS011;58179;48.776;9.124;2024-02-14T11:49:52;2.20;;;1.13;;
55913;SDS011;58179;48.776;9.124;2024-02-14T11:52:18;1.10;;;1.00;;
55913;SDS011;58179;48.776;9.124;2024-02-14T11:54:45;3.08;;;1.42;;
55913;SDS011;58179;48.776;9.124;2024-02-14T11:57:16;3.63;;;1.38;;
55913;SDS011;58179;48.776;9.124;2024-02-14T11:59:43;1.63;;;1.38;;
55913;SDS011;58179;48.776;9.124;2024-02-14T12:02:11;1.83;;;1.20;;
55913;SDS011;58179;48.776;9.124;2024-02-14T12:04:40;1.33;;;0.93;;
55913;SDS011;58179;48.776;9.124;2024-02-14T12:07:06;1.43;;;1.10;;
55913;SDS011;58179;48.776;9.124;2024-02-14T12:09:33;3.30;;;1.40;;
55913;SDS011;58179;48.776;9.124;2024-02-14T12:11:59;1.30;;;1.10;;
55913;SDS011;58179;48.776;9.124;2024-02-14T12:14:26;1.48;;;0.90;;
55913;SDS011;58179;48.776;9.124;2024-02-14T12:16:56;4.25;;;1.10;;
55913;SDS011;58179;48.776;9.124;2024-02-14T12:19:26;1.48;;;1.10;;
55913;SDS011;58179;48.776;9.124;2024-02-14T12:21:53;1.00;;;0.82;;
55913;SDS011;58179;48.776;9.124;2024-02-14T12:24:21;4.07;;;1.00;;
55913;SDS011;58179;48.776;9.124;2024-02-14T12:26:48;1.63;;;0.93;;
55913;SDS011;58179;48.776;9.124;2024-02-14T12:29:17;2.70;;;1.00;;
55913;SDS011;58179;48.776;9.124;2024-02-14T12:31:43;1.63;;;0.95;;
55913;SDS011;58179;48.776;9.124;2024-02-14T12:34:10;1.52;;;0.90;;
55913;SDS011;58179;48.776;9.124;2024-02-14T12:36:36;2.42;;;1.00;;
55913;SDS011;58179;48.776;9.124;2024-02-14T12:39:04;1.15;;;0.90;;
55913;SDS011;58179;48.776;9.124;2024-02-14T12:41:31;2.33;;;0.90;;
55913;SDS011;58179;48.776;9.124;2024-02-14T12:44:00;3.17;;;0.73;;
55913;SDS011;58179;48.776;9.124;2024-02-14T12:46:26;1.55;;;0.90;;
55913;SDS011;58179;48.776;9.124;2024-02-14T12:48:53;0.70;;;0.70;;
55913;SDS011;58179;48.776;9.124;2024-02-14T12:51:19;0.70;;;0.70;;
55913;SDS011;58179;48.776;9.124;2024-02-14T12:53:45;0.80;;;0.80;;
55913;SDS011;58179;48.776;9.124;2024-02-14T12:56:13;1.08;;;0.63;;
55913;SDS011;58179;48.776;9.124;2024-02-14T12:58:39;0.90;;;0.80;;
55913;SDS011;58179;48.776;9.124;2024-02-14T13:01:05;1.40;;;0.70;;
55913;SDS011;58179;48.776;9.124;2024-02-14T13:03:33;0.98;;;0.80;;
55913;SDS011;58179;48.776;9.124;2024-02-14T13:06:00;1.65;;;1.00;;
55913;SDS011;58179;48.776;9.124;2024-02-14T13:08:27;0.95;;;0.85;;
55913;SDS011;58179;48.776;9.124;2024-02-14T13:10:53;1.05;;;0.80;;
55913;SDS011;58179;48.776;9.124;2024-02-14T13:13:21;0.88;;;0.80;;
55913;SDS011;58179;48.776;9.124;2024-02-14T13:15:47;0.80;;;0.80;;
55913;SDS011;58179;48.776;9.124;2024-02-14T13:18:13;0.85;;;0.85;;
55913;SDS011;58179;48.776;9.124;2024-02-14T13:20:40;1.73;;;0.98;;
55913;SDS011;58179;48.776;9.124;2024-02-14T13:23:07;2.00;;;0.85;;
55913;SDS011;58179;48.776;9.124;2024-02-14T13:25:34;0.70;;;0.70;;
55913;SDS011;58179;48.776;9.124;2024-02-14T13:28:01;0.82;;;0.80;;
55913;SDS011;58179;48.776;9.124;2024-02-14T13:30:29;0.88;;;0.80;;
55913;SDS011;58179;48.776;9.124;2024-02-14T13:32:55;1.05;;;0.80;;
55913;SDS011;58179;48.776;9.124;2024-02-14T13:35:21;0.90;;;0.82;;
55913;SDS011;58179;48.776;9.124;2024-02-14T13:37:48;1.10;;;0.63;;
55913;SDS011;58179;48.776;9.124;2024-02-14T13:40:15;0.85;;;0.80;;
55913;SDS011;58179;48.776;9.124;2024-02-14T13:42:41;0.90;;;0.80;;
55913;SDS011;58179;48.776;9.124;2024-02-14T13:45:08;1.10;;;0.90;;
55913;SDS011;58179;48.776;9.124;2024-02-14T13:47:36;1.00;;;0.90;;
55913;SDS011;58179;48.776;9.124;2024-02-14T13:50:07;0.70;;;0.60;;
55913;SDS011;58179;48.776;9.124;2024-02-14T13:52:34;0.85;;;0.70;;
55913;SDS011;58179;48.776;9.124;2024-02-14T13:55:01;0.80;;;0.75;;
55913;SDS011;58179;48.776;9.124;2024-02-14T13:57:27;0.75;;;0.75;;
55913;SDS011;58179;48.776;9.124;2024-02-14T13:59:54;0.60;;;0.60;;
55913;SDS011;58179;48.776;9.124;2024-02-14T14:02:21;0.80;;;0.77;;
55913;SDS011;58179;48.776;9.124;2024-02-14T14:04:49;0.95;;;0.80;;
55913;SDS011;58179;48.776;9.124;2024-02-14T14:07:17;1.13;;;0.70;;
55913;SDS011;58179;48.776;9.124;2024-02-14T14:09:44;1.10;;;1.00;;
55913;SDS011;58179;48.776;9.124;2024-02-14T14:12:10;2.33;;;0.70;;
55913;SDS011;58179;48.776;9.124;2024-02-14T14:14:36;1.40;;;0.90;;
55913;SDS011;58179;48.776;9.124;2024-02-14T14:17:02;0.70;;;0.70;;
55913;SDS011;58179;48.776;9.124;2024-02-14T14:19:29;1.23;;;0.80;;
55913;SDS011;58179;48.776;9.124;2024-02-14T14:21:56;0.75;;;0.70;;
55913;SDS011;58179;48.776;9.124;2024-02-14T14:24:22;0.70;;;0.70;;
55913;SDS011;58179;48.776;9.124;2024-02-14T14:26:50;0.88;;;0.88;;
55913;SDS011;58179;48.776;9.124;2024-02-14T14:29:16;0.82;;;0.82;;
55913;SDS011;58179;48.776;9.124;2024-02-14T14:31:42;0.75;;;0.65;;
55913;SDS011;58179;48.776;9.124;2024-02-14T14:34:08;1.23;;;0.80;;
55913;SDS011;58179;48.776;9.124;2024-02-14T14:36:34;0.82;;;0.82;;
55913;SDS011;58179;48.776;9.124;2024-02-14T14:39:03;1.20;;;0.80;;
55913;SDS011;58179;48.776;9.124;2024-02-14T14:41:30;0.80;;;0.80;;
55913;SDS011;58179;48.776;9.124;2024-02-14T14:43:56;1.27;;;1.00;;
55913;SDS011;58179;48.776;9.124;2024-02-14T14:46:22;1.17;;;0.90;;